sensor_id;sensor_type;location;lat;lon;timestamp;P1;durP1;ratioP1;P2;durP2;ratioP2
54259;SDS011;40172;53.022;7.012;2023-06-19T00:01:19;7.65;;;6.13;;
54259;SDS011;40172;53.022;7.012;2023-06-19T00:03:45;10.95;;;5.60;;
54259;SDS011;40172;53.022;7.012;2023-06-19T00:06:10;9.32;;;5.93;;
54259;SDS011;40172;53.022;7.012;2023-06-19T00:08:38;10.27;;;6.00;;
54259;SDS011;40172;53.022;7.012;2023-06-19T00:11:06;7.95;;;5.88;;
54259;SDS011;40172;53.022;7.012;2023-06-19T00:13:32;7.93;;;6.22;;
54259;SDS011;40172;53.022;7.012;2023-06-19T00:15:58;10.43;;;6.32;;
54259;SDS011;40172;53.022;7.012;2023-06-19T00:18:25;12.07;;;6.15;;
54259;SDS011;40172;53.022;7.012;2023-06-19T00:20:51;7.95;;;6.47;;
54259;SDS011;40172;53.022;7.012;2023-06-19T00:23:19;9.20;;;6.05;;
54259;SDS011;40172;53.022;7.012;2023-06-19T00:25:45;10.23;;;6.00;;
54259;SDS011;40172;53.022;7.012;2023-06-19T00:28:10;9.77;;;6.20;;
54259;SDS011;40172;53.022;7.012;2023-06-19T00:30:40;7.45;;;5.72;;
54259;SDS011;40172;53.022;7.012;2023-06-19T00:33:06;9.18;;;6.45;;
54259;SDS011;40172;53.022;7.012;2023-06-19T00:35:32;9.63;;;6.47;;
54259;SDS011;40172;53.022;7.012;2023-06-19T00:37:58;9.23;;;6.10;;
54259;SDS011;40172;53.022;7.012;2023-06-19T00:40:27;9.27;;;6.05;;
54259;SDS011;40172;53.022;7.012;2023-06-19T00:42:55;8.82;;;6.35;;
54259;SDS011;40172;53.022;7.012;2023-06-19T00:45:21;8.38;;;6.65;;
54259;SDS011;40172;53.022;7.012;2023-06-19T00:47:48;9.57;;;6.57;;
54259;SDS011;40172;53.022;7.012;2023-06-19T00:50:15;8.02;;;5.95;;
54259;SDS011;40172;53.022;7.012;2023-06-19T00:52:41;8.88;;;6.20;;
54259;SDS011;40172;53.022;7.012;2023-06-19T00:55:07;10.27;;;6.60;;
54259;SDS011;40172;53.022;7.012;2023-06-19T00:57:34;8.57;;;6.93;;
54259;SDS011;40172;53.022;7.012;2023-06-19T01:00:01;11.68;;;6.55;;
54259;SDS011;40172;53.022;7.012;2023-06-19T01:02:29;8.57;;;6.22;;
54259;SDS011;40172;53.022;7.012;2023-06-19T01:04:56;7.97;;;6.47;;
54259;SDS011;40172;53.022;7.012;2023-06-19T01:07:30;8.93;;;6.90;;
54259;SDS011;40172;53.022;7.012;2023-06-19T01:10:14;7.50;;;6.40;;
54259;SDS011;40172;53.022;7.012;2023-06-19T01:13:27;10.27;;;6.47;;
54259;SDS011;40172;53.022;7.012;2023-06-19T01:15:34;8.00;;;6.20;;
54259;SDS011;40172;53.022;7.012;2023-06-19T01:18:01;8.30;;;6.45;;
54259;SDS011;40172;53.022;7.012;2023-06-19T01:23:09;9.90;;;6.43;;
54259;SDS011;40172;53.022;7.012;2023-06-19T01:25:36;7.57;;;6.32;;
54259;SDS011;40172;53.022;7.012;2023-06-19T01:28:03;8.30;;;6.10;;
54259;SDS011;40172;53.022;7.012;2023-06-19T01:30:31;8.95;;;6.45;;
54259;SDS011;40172;53.022;7.012;2023-06-19T01:33:04;8.30;;;6.28;;
54259;SDS011;40172;53.022;7.012;2023-06-19T01:35:37;6.78;;;6.07;;
54259;SDS011;40172;53.022;7.012;2023-06-19T01:38:06;9.18;;;6.30;;
54259;SDS011;40172;53.022;7.012;2023-06-19T01:40:33;7.75;;;5.90;;
54259;SDS011;40172;53.022;7.012;2023-06-19T01:42:59;8.95;;;6.53;;
54259;SDS011;40172;53.022;7.012;2023-06-19T01:45:27;9.35;;;6.20;;
54259;SDS011;40172;53.022;7.012;2023-06-19T01:47:53;9.13;;;6.28;;
54259;SDS011;40172;53.022;7.012;2023-06-19T01:50:19;8.05;;;6.50;;
54259;SDS011;40172;53.022;7.012;2023-06-19T01:52:47;10.90;;;6.70;;
54259;SDS011;40172;53.022;7.012;2023-06-19T01:55:12;7.82;;;6.05;;
54259;SDS011;40172;53.022;7.012;2023-06-19T01:57:39;10.27;;;6.20;;
54259;SDS011;40172;53.022;7.012;2023-06-19T02:00:06;9.45;;;6.82;;
54259;SDS011;40172;53.022;7.012;2023-06-19T02:02:35;9.52;;;6.10;;
54259;SDS011;40172;53.022;7.012;2023-06-19T02:05:01;10.02;;;6.35;;
54259;SDS011;40172;53.022;7.012;2023-06-19T02:07:27;9.18;;;5.93;;
54259;SDS011;40172;53.022;7.012;2023-06-19T02:09:53;8.07;;;6.68;;
54259;SDS011;40172;53.022;7.012;2023-06-19T02:12:18;8.35;;;6.60;;
54259;SDS011;40172;53.022;7.012;2023-06-19T02:14:44;9.57;;;6.45;;
54259;SDS011;40172;53.022;7.012;2023-06-19T02:17:09;6.80;;;6.03;;
54259;SDS011;40172;53.022;7.012;2023-06-19T02:19:35;7.35;;;6.43;;
54259;SDS011;40172;53.022;7.012;2023-06-19T02:22:01;7.65;;;6.63;;
54259;SDS011;40172;53.022;7.012;2023-06-19T02:24:26;10.27;;;6.03;;
54259;SDS011;40172;53.022;7.012;2023-06-19T02:26:52;9.18;;;6.90;;
54259;SDS011;40172;53.022;7.012;2023-06-19T02:29:17;7.65;;;6.60;;
54259;SDS011;40172;53.022;7.012;2023-06-19T02:31:44;8.13;;;6.03;;
54259;SDS011;40172;53.022;7.012;2023-06-19T02:34:09;10.13;;;6.05;;
54259;SDS011;40172;53.022;7.012;2023-06-19T02:36:35;8.80;;;5.90;;
54259;SDS011;40172;53.022;7.012;2023-06-19T02:39:04;9.13;;;6.47;;
54259;SDS011;40172;53.022;7.012;2023-06-19T02:41:33;8.40;;;6.82;;
54259;SDS011;40172;53.022;7.012;2023-06-19T02:43:59;7.38;;;6.32;;
54259;SDS011;40172;53.022;7.012;2023-06-19T02:46:24;7.93;;;6.07;;
54259;SDS011;40172;53.022;7.012;2023-06-19T02:48:50;7.57;;;6.50;;
54259;SDS011;40172;53.022;7.012;2023-06-19T02:51:15;9.38;;;6.50;;
54259;SDS011;40172;53.022;7.012;2023-06-19T02:53:41;7.47;;;6.40;;
54259;SDS011;40172;53.022;7.012;2023-06-19T02:56:08;12.45;;;7.28;;
54259;SDS011;40172;53.022;7.012;2023-06-19T02:58:34;8.27;;;6.30;;
54259;SDS011;40172;53.022;7.012;2023-06-19T03:01:02;9.93;;;6.47;;
54259;SDS011;40172;53.022;7.012;2023-06-19T03:03:28;8.23;;;6.35;;
54259;SDS011;40172;53.022;7.012;2023-06-19T03:05:54;8.40;;;6.70;;
54259;SDS011;40172;53.022;7.012;2023-06-19T03:08:20;7.82;;;6.53;;
54259;SDS011;40172;53.022;7.012;2023-06-19T03:10:46;10.30;;;6.72;;
54259;SDS011;40172;53.022;7.012;2023-06-19T03:13:12;7.82;;;6.88;;
54259;SDS011;40172;53.022;7.012;2023-06-19T03:15:38;7.57;;;6.85;;
54259;SDS011;40172;53.022;7.012;2023-06-19T03:18:04;10.98;;;6.70;;
54259;SDS011;40172;53.022;7.012;2023-06-19T03:20:31;9.13;;;6.63;;
54259;SDS011;40172;53.022;7.012;2023-06-19T03:22:57;10.07;;;6.45;;
54259;SDS011;40172;53.022;7.012;2023-06-19T03:25:23;8.38;;;6.88;;
54259;SDS011;40172;53.022;7.012;2023-06-19T03:27:48;10.30;;;6.90;;
54259;SDS011;40172;53.022;7.012;2023-06-19T03:30:14;10.02;;;6.60;;
54259;SDS011;40172;53.022;7.012;2023-06-19T03:32:43;7.32;;;6.53;;
54259;SDS011;40172;53.022;7.012;2023-06-19T03:35:09;7.18;;;6.45;;
54259;SDS011;40172;53.022;7.012;2023-06-19T03:37:35;9.35;;;6.55;;
54259;SDS011;40172;53.022;7.012;2023-06-19T03:40:01;9.43;;;6.43;;
54259;SDS011;40172;53.022;7.012;2023-06-19T03:42:28;13.40;;;6.32;;
54259;SDS011;40172;53.022;7.012;2023-06-19T03:44:54;9.13;;;6.53;;
54259;SDS011;40172;53.022;7.012;2023-06-19T03:47:19;14.27;;;7.25;;
54259;SDS011;40172;53.022;7.012;2023-06-19T03:49:46;6.90;;;6.20;;
54259;SDS011;40172;53.022;7.012;2023-06-19T03:52:13;7.07;;;6.30;;
54259;SDS011;40172;53.022;7.012;2023-06-19T03:54:39;9.30;;;6.55;;
54259;SDS011;40172;53.022;7.012;2023-06-19T03:57:04;8.88;;;6.45;;
54259;SDS011;40172;53.022;7.012;2023-06-19T03:59:31;9.60;;;6.45;;
54259;SDS011;40172;53.022;7.012;2023-06-19T04:01:57;10.77;;;6.55;;
54259;SDS011;40172;53.022;7.012;2023-06-19T04:04:22;7.60;;;6.43;;
54259;SDS011;40172;53.022;7.012;2023-06-19T04:06:48;8.43;;;5.97;;
54259;SDS011;40172;53.022;7.012;2023-06-19T04:09:14;9.57;;;6.47;;
54259;SDS011;40172;53.022;7.012;2023-06-19T04:11:40;9.80;;;6.13;;
54259;SDS011;40172;53.022;7.012;2023-06-19T04:14:05;8.98;;;6.30;;
54259;SDS011;40172;53.022;7.012;2023-06-19T04:16:31;8.88;;;6.20;;
54259;SDS011;40172;53.022;7.012;2023-06-19T04:18:56;6.80;;;6.10;;
54259;SDS011;40172;53.022;7.012;2023-06-19T04:21:22;8.82;;;6.07;;
54259;SDS011;40172;53.022;7.012;2023-06-19T04:23:47;8.02;;;6.38;;
54259;SDS011;40172;53.022;7.012;2023-06-19T04:26:13;7.88;;;6.10;;
54259;SDS011;40172;53.022;7.012;2023-06-19T04:28:39;7.25;;;6.00;;
54259;SDS011;40172;53.022;7.012;2023-06-19T04:31:04;7.75;;;6.10;;
54259;SDS011;40172;53.022;7.012;2023-06-19T04:33:30;7.13;;;6.13;;
54259;SDS011;40172;53.022;7.012;2023-06-19T04:35:57;9.48;;;5.82;;
54259;SDS011;40172;53.022;7.012;2023-06-19T04:38:22;6.28;;;5.68;;
54259;SDS011;40172;53.022;7.012;2023-06-19T04:40:49;7.72;;;5.70;;
54259;SDS011;40172;53.022;7.012;2023-06-19T04:43:15;7.60;;;4.85;;
54259;SDS011;40172;53.022;7.012;2023-06-19T04:45:41;5.80;;;4.97;;
54259;SDS011;40172;53.022;7.012;2023-06-19T04:48:07;5.40;;;4.90;;
54259;SDS011;40172;53.022;7.012;2023-06-19T04:50:32;5.38;;;4.88;;
54259;SDS011;40172;53.022;7.012;2023-06-19T04:52:58;5.50;;;4.63;;
54259;SDS011;40172;53.022;7.012;2023-06-19T04:55:24;5.20;;;4.70;;
54259;SDS011;40172;53.022;7.012;2023-06-19T04:57:50;7.75;;;4.43;;
54259;SDS011;40172;53.022;7.012;2023-06-19T05:00:16;5.50;;;4.90;;
54259;SDS011;40172;53.022;7.012;2023-06-19T05:02:44;7.50;;;5.38;;
54259;SDS011;40172;53.022;7.012;2023-06-19T05:05:12;6.82;;;4.80;;
54259;SDS011;40172;53.022;7.012;2023-06-19T05:07:38;7.70;;;4.88;;
54259;SDS011;40172;53.022;7.012;2023-06-19T05:10:04;6.47;;;5.10;;
54259;SDS011;40172;53.022;7.012;2023-06-19T05:12:30;5.20;;;4.63;;
54259;SDS011;40172;53.022;7.012;2023-06-19T05:14:55;9.73;;;4.88;;
54259;SDS011;40172;53.022;7.012;2023-06-19T05:17:21;6.85;;;5.10;;
54259;SDS011;40172;53.022;7.012;2023-06-19T05:19:46;8.10;;;4.85;;
54259;SDS011;40172;53.022;7.012;2023-06-19T05:22:12;7.32;;;4.90;;
54259;SDS011;40172;53.022;7.012;2023-06-19T05:24:38;5.65;;;4.53;;
54259;SDS011;40172;53.022;7.012;2023-06-19T05:27:04;7.93;;;4.18;;
54259;SDS011;40172;53.022;7.012;2023-06-19T05:29:30;4.68;;;4.03;;
54259;SDS011;40172;53.022;7.012;2023-06-19T05:31:56;5.68;;;4.30;;
54259;SDS011;40172;53.022;7.012;2023-06-19T05:34:22;5.60;;;4.20;;
54259;SDS011;40172;53.022;7.012;2023-06-19T05:36:47;6.25;;;4.30;;
54259;SDS011;40172;53.022;7.012;2023-06-19T05:39:13;5.30;;;4.03;;
54259;SDS011;40172;53.022;7.012;2023-06-19T05:41:39;6.65;;;3.72;;
54259;SDS011;40172;53.022;7.012;2023-06-19T05:44:05;5.70;;;3.42;;
54259;SDS011;40172;53.022;7.012;2023-06-19T05:46:31;7.72;;;3.63;;
54259;SDS011;40172;53.022;7.012;2023-06-19T05:48:56;5.05;;;3.72;;
54259;SDS011;40172;53.022;7.012;2023-06-19T05:51:22;4.65;;;3.55;;
54259;SDS011;40172;53.022;7.012;2023-06-19T05:53:47;5.05;;;3.60;;
54259;SDS011;40172;53.022;7.012;2023-06-19T05:56:14;6.25;;;3.33;;
54259;SDS011;40172;53.022;7.012;2023-06-19T05:58:40;5.90;;;3.80;;
54259;SDS011;40172;53.022;7.012;2023-06-19T06:01:06;7.00;;;4.00;;
54259;SDS011;40172;53.022;7.012;2023-06-19T06:03:32;5.68;;;3.90;;
54259;SDS011;40172;53.022;7.012;2023-06-19T06:05:58;6.45;;;3.78;;
54259;SDS011;40172;53.022;7.012;2023-06-19T06:08:31;3.67;;;3.33;;
54259;SDS011;40172;53.022;7.012;2023-06-19T06:10:57;6.40;;;3.85;;
54259;SDS011;40172;53.022;7.012;2023-06-19T06:13:22;7.68;;;3.85;;
54259;SDS011;40172;53.022;7.012;2023-06-19T06:15:48;5.85;;;3.60;;
54259;SDS011;40172;53.022;7.012;2023-06-19T06:18:15;9.77;;;4.30;;
54259;SDS011;40172;53.022;7.012;2023-06-19T06:20:41;5.45;;;3.78;;
54259;SDS011;40172;53.022;7.012;2023-06-19T06:23:06;8.63;;;3.42;;
54259;SDS011;40172;53.022;7.012;2023-06-19T06:25:32;4.53;;;3.65;;
54259;SDS011;40172;53.022;7.012;2023-06-19T06:27:57;4.70;;;3.58;;
54259;SDS011;40172;53.022;7.012;2023-06-19T06:30:23;7.55;;;3.72;;
54259;SDS011;40172;53.022;7.012;2023-06-19T06:32:49;5.50;;;3.30;;
54259;SDS011;40172;53.022;7.012;2023-06-19T06:35:15;5.70;;;3.53;;
54259;SDS011;40172;53.022;7.012;2023-06-19T06:37:41;6.20;;;3.33;;
54259;SDS011;40172;53.022;7.012;2023-06-19T06:40:07;7.15;;;3.85;;
54259;SDS011;40172;53.022;7.012;2023-06-19T06:42:39;4.25;;;3.03;;
54259;SDS011;40172;53.022;7.012;2023-06-19T06:45:05;5.50;;;3.20;;
54259;SDS011;40172;53.022;7.012;2023-06-19T06:47:32;3.75;;;2.90;;
54259;SDS011;40172;53.022;7.012;2023-06-19T06:49:57;9.90;;;3.50;;
54259;SDS011;40172;53.022;7.012;2023-06-19T06:52:23;5.18;;;3.38;;
54259;SDS011;40172;53.022;7.012;2023-06-19T06:54:49;5.50;;;3.35;;
54259;SDS011;40172;53.022;7.012;2023-06-19T06:57:15;4.97;;;3.38;;
54259;SDS011;40172;53.022;7.012;2023-06-19T06:59:41;7.28;;;3.15;;
54259;SDS011;40172;53.022;7.012;2023-06-19T07:02:07;4.53;;;3.65;;
54259;SDS011;40172;53.022;7.012;2023-06-19T07:04:32;7.95;;;3.42;;
54259;SDS011;40172;53.022;7.012;2023-06-19T07:06:58;6.20;;;4.00;;
54259;SDS011;40172;53.022;7.012;2023-06-19T07:09:24;7.38;;;3.58;;
54259;SDS011;40172;53.022;7.012;2023-06-19T07:11:50;4.30;;;3.90;;
54259;SDS011;40172;53.022;7.012;2023-06-19T07:14:16;4.93;;;3.83;;
54259;SDS011;40172;53.022;7.012;2023-06-19T07:16:43;10.93;;;4.80;;
54259;SDS011;40172;53.022;7.012;2023-06-19T07:19:10;5.72;;;4.45;;
54259;SDS011;40172;53.022;7.012;2023-06-19T07:21:36;7.22;;;4.00;;
54259;SDS011;40172;53.022;7.012;2023-06-19T07:24:03;9.02;;;4.55;;
54259;SDS011;40172;53.022;7.012;2023-06-19T07:26:29;8.43;;;4.82;;
54259;SDS011;40172;53.022;7.012;2023-06-19T07:28:55;7.82;;;5.35;;
54259;SDS011;40172;53.022;7.012;2023-06-19T07:31:21;9.10;;;5.68;;
54259;SDS011;40172;53.022;7.012;2023-06-19T07:33:46;8.98;;;6.50;;
54259;SDS011;40172;53.022;7.012;2023-06-19T07:36:12;7.38;;;6.20;;
54259;SDS011;40172;53.022;7.012;2023-06-19T07:38:39;9.75;;;6.45;;
54259;SDS011;40172;53.022;7.012;2023-06-19T07:41:05;9.20;;;6.10;;
54259;SDS011;40172;53.022;7.012;2023-06-19T07:43:32;10.65;;;6.30;;
54259;SDS011;40172;53.022;7.012;2023-06-19T07:45:58;7.80;;;6.85;;
54259;SDS011;40172;53.022;7.012;2023-06-19T07:48:24;8.40;;;6.32;;
54259;SDS011;40172;53.022;7.012;2023-06-19T07:50:49;10.38;;;6.03;;
54259;SDS011;40172;53.022;7.012;2023-06-19T07:53:15;6.60;;;5.90;;
54259;SDS011;40172;53.022;7.012;2023-06-19T07:55:41;6.80;;;5.25;;
54259;SDS011;40172;53.022;7.012;2023-06-19T07:58:07;6.40;;;4.95;;
54259;SDS011;40172;53.022;7.012;2023-06-19T08:00:32;9.93;;;5.60;;
54259;SDS011;40172;53.022;7.012;2023-06-19T08:02:58;7.10;;;5.60;;
54259;SDS011;40172;53.022;7.012;2023-06-19T08:05:23;11.90;;;5.68;;
54259;SDS011;40172;53.022;7.012;2023-06-19T08:07:49;10.43;;;5.72;;
54259;SDS011;40172;53.022;7.012;2023-06-19T08:10:15;11.85;;;6.38;;
54259;SDS011;40172;53.022;7.012;2023-06-19T08:12:41;8.75;;;5.75;;
54259;SDS011;40172;53.022;7.012;2023-06-19T08:15:08;6.97;;;6.22;;
54259;SDS011;40172;53.022;7.012;2023-06-19T08:17:34;8.02;;;5.60;;
54259;SDS011;40172;53.022;7.012;2023-06-19T08:20:00;9.38;;;5.70;;
54259;SDS011;40172;53.022;7.012;2023-06-19T08:22:26;7.82;;;5.70;;
54259;SDS011;40172;53.022;7.012;2023-06-19T08:24:52;6.80;;;5.82;;
54259;SDS011;40172;53.022;7.012;2023-06-19T08:27:17;8.25;;;6.07;;
54259;SDS011;40172;53.022;7.012;2023-06-19T08:29:43;10.02;;;6.38;;
54259;SDS011;40172;53.022;7.012;2023-06-19T08:32:08;10.90;;;6.38;;
54259;SDS011;40172;53.022;7.012;2023-06-19T08:34:34;9.70;;;5.90;;
54259;SDS011;40172;53.022;7.012;2023-06-19T08:37:00;7.88;;;5.95;;
54259;SDS011;40172;53.022;7.012;2023-06-19T08:39:26;6.95;;;6.00;;
54259;SDS011;40172;53.022;7.012;2023-06-19T08:41:51;11.07;;;5.90;;
54259;SDS011;40172;53.022;7.012;2023-06-19T08:44:18;8.30;;;5.60;;
54259;SDS011;40172;53.022;7.012;2023-06-19T08:46:44;6.72;;;6.00;;
54259;SDS011;40172;53.022;7.012;2023-06-19T08:49:09;8.15;;;5.03;;
54259;SDS011;40172;53.022;7.012;2023-06-19T08:51:36;7.47;;;5.00;;
54259;SDS011;40172;53.022;7.012;2023-06-19T08:54:02;7.53;;;5.47;;
54259;SDS011;40172;53.022;7.012;2023-06-19T08:56:30;6.13;;;5.38;;
54259;SDS011;40172;53.022;7.012;2023-06-19T08:59:15;8.30;;;5.57;;
54259;SDS011;40172;53.022;7.012;2023-06-19T09:04:24;8.60;;;5.78;;
54259;SDS011;40172;53.022;7.012;2023-06-19T09:06:56;8.00;;;5.88;;
54259;SDS011;40172;53.022;7.012;2023-06-19T09:09:29;9.00;;;6.35;;
54259;SDS011;40172;53.022;7.012;2023-06-19T09:12:01;7.70;;;6.90;;
54259;SDS011;40172;53.022;7.012;2023-06-19T09:14:42;8.43;;;6.50;;
54259;SDS011;40172;53.022;7.012;2023-06-19T09:17:12;8.85;;;7.13;;
54259;SDS011;40172;53.022;7.012;2023-06-19T09:19:48;8.30;;;6.50;;
54259;SDS011;40172;53.022;7.012;2023-06-19T09:22:16;11.15;;;7.20;;
54259;SDS011;40172;53.022;7.012;2023-06-19T09:24:45;8.27;;;6.60;;
54259;SDS011;40172;53.022;7.012;2023-06-19T09:27:12;8.35;;;7.53;;
54259;SDS011;40172;53.022;7.012;2023-06-19T09:29:40;9.55;;;7.53;;
54259;SDS011;40172;53.022;7.012;2023-06-19T09:32:16;8.20;;;7.40;;
54259;SDS011;40172;53.022;7.012;2023-06-19T09:34:43;9.93;;;7.03;;
54259;SDS011;40172;53.022;7.012;2023-06-19T09:37:09;8.73;;;7.40;;
54259;SDS011;40172;53.022;7.012;2023-06-19T09:39:38;8.65;;;7.75;;
54259;SDS011;40172;53.022;7.012;2023-06-19T09:42:08;8.13;;;7.32;;
54259;SDS011;40172;53.022;7.012;2023-06-19T09:44:39;8.93;;;7.50;;
54259;SDS011;40172;53.022;7.012;2023-06-19T09:47:10;8.98;;;8.18;;
54259;SDS011;40172;53.022;7.012;2023-06-19T09:49:48;8.85;;;6.68;;
54259;SDS011;40172;53.022;7.012;2023-06-19T09:52:19;7.22;;;6.03;;
54259;SDS011;40172;53.022;7.012;2023-06-19T09:54:47;9.88;;;5.40;;
54259;SDS011;40172;53.022;7.012;2023-06-19T09:57:16;7.55;;;4.70;;
54259;SDS011;40172;53.022;7.012;2023-06-19T09:59:43;11.82;;;5.40;;
54259;SDS011;40172;53.022;7.012;2023-06-19T10:02:09;11.93;;;5.13;;
54259;SDS011;40172;53.022;7.012;2023-06-19T10:04:42;9.82;;;4.43;;
54259;SDS011;40172;53.022;7.012;2023-06-19T10:07:45;6.60;;;4.70;;
54259;SDS011;40172;53.022;7.012;2023-06-19T10:10:27;9.15;;;5.40;;
54259;SDS011;40172;53.022;7.012;2023-06-19T10:12:53;10.35;;;5.03;;
54259;SDS011;40172;53.022;7.012;2023-06-19T10:15:27;9.57;;;4.60;;
54259;SDS011;40172;53.022;7.012;2023-06-19T10:18:01;6.88;;;4.95;;
54259;SDS011;40172;53.022;7.012;2023-06-19T10:20:29;6.70;;;5.07;;
54259;SDS011;40172;53.022;7.012;2023-06-19T10:23:35;6.97;;;4.78;;
54259;SDS011;40172;53.022;7.012;2023-06-19T10:28:24;9.57;;;5.65;;
54259;SDS011;40172;53.022;7.012;2023-06-19T10:33:35;7.18;;;4.82;;
54259;SDS011;40172;53.022;7.012;2023-06-19T10:36:13;11.35;;;5.65;;
54259;SDS011;40172;53.022;7.012;2023-06-19T10:38:46;14.43;;;5.95;;
54259;SDS011;40172;53.022;7.012;2023-06-19T10:41:19;8.20;;;5.72;;
54259;SDS011;40172;53.022;7.012;2023-06-19T10:43:58;12.00;;;6.57;;
54259;SDS011;40172;53.022;7.012;2023-06-19T10:46:34;9.93;;;7.20;;
54259;SDS011;40172;53.022;7.012;2023-06-19T10:49:01;9.07;;;7.05;;
54259;SDS011;40172;53.022;7.012;2023-06-19T10:51:39;9.35;;;7.25;;
54259;SDS011;40172;53.022;7.012;2023-06-19T10:54:08;10.23;;;8.00;;
54259;SDS011;40172;53.022;7.012;2023-06-19T10:56:34;10.80;;;8.00;;
54259;SDS011;40172;53.022;7.012;2023-06-19T10:59:03;11.75;;;7.63;;
54259;SDS011;40172;53.022;7.012;2023-06-19T11:04:07;12.95;;;7.60;;
54259;SDS011;40172;53.022;7.012;2023-06-19T11:06:34;11.32;;;5.88;;
54259;SDS011;40172;53.022;7.012;2023-06-19T11:09:01;7.88;;;5.15;;
54259;SDS011;40172;53.022;7.012;2023-06-19T11:11:43;7.38;;;5.25;;
54259;SDS011;40172;53.022;7.012;2023-06-19T11:14:10;9.95;;;5.97;;
54259;SDS011;40172;53.022;7.012;2023-06-19T11:16:38;8.27;;;5.72;;
54259;SDS011;40172;53.022;7.012;2023-06-19T11:19:07;8.30;;;5.90;;
54259;SDS011;40172;53.022;7.012;2023-06-19T11:21:34;13.02;;;7.38;;
54259;SDS011;40172;53.022;7.012;2023-06-19T11:24:04;10.98;;;7.93;;
54259;SDS011;40172;53.022;7.012;2023-06-19T11:26:35;9.35;;;7.35;;
54259;SDS011;40172;53.022;7.012;2023-06-19T11:29:21;10.23;;;7.72;;
54259;SDS011;40172;53.022;7.012;2023-06-19T11:31:48;7.78;;;5.78;;
54259;SDS011;40172;53.022;7.012;2023-06-19T11:34:15;5.65;;;4.93;;
54259;SDS011;40172;53.022;7.012;2023-06-19T11:36:42;6.13;;;4.75;;
54259;SDS011;40172;53.022;7.012;2023-06-19T11:39:15;6.18;;;4.60;;
54259;SDS011;40172;53.022;7.012;2023-06-19T11:41:40;8.55;;;4.82;;
54259;SDS011;40172;53.022;7.012;2023-06-19T11:44:08;7.63;;;5.32;;
54259;SDS011;40172;53.022;7.012;2023-06-19T11:46:35;7.90;;;4.90;;
54259;SDS011;40172;53.022;7.012;2023-06-19T11:49:10;5.65;;;4.63;;
54259;SDS011;40172;53.022;7.012;2023-06-19T11:51:37;7.43;;;5.10;;
54259;SDS011;40172;53.022;7.012;2023-06-19T11:54:07;7.28;;;5.60;;
54259;SDS011;40172;53.022;7.012;2023-06-19T11:56:37;7.10;;;5.07;;
54259;SDS011;40172;53.022;7.012;2023-06-19T11:59:03;6.82;;;5.68;;
54259;SDS011;40172;53.022;7.012;2023-06-19T12:01:31;8.73;;;5.80;;
54259;SDS011;40172;53.022;7.012;2023-06-19T12:03:57;10.05;;;5.60;;
54259;SDS011;40172;53.022;7.012;2023-06-19T12:06:23;8.88;;;5.28;;
54259;SDS011;40172;53.022;7.012;2023-06-19T12:08:48;7.65;;;5.65;;
54259;SDS011;40172;53.022;7.012;2023-06-19T12:11:14;8.88;;;5.32;;
54259;SDS011;40172;53.022;7.012;2023-06-19T12:13:40;11.43;;;5.82;;
54259;SDS011;40172;53.022;7.012;2023-06-19T12:16:06;9.35;;;6.28;;
54259;SDS011;40172;53.022;7.012;2023-06-19T12:18:32;8.40;;;5.68;;
54259;SDS011;40172;53.022;7.012;2023-06-19T12:20:58;8.77;;;5.30;;
54259;SDS011;40172;53.022;7.012;2023-06-19T12:23:24;7.35;;;5.57;;
54259;SDS011;40172;53.022;7.012;2023-06-19T12:25:49;7.68;;;5.40;;
54259;SDS011;40172;53.022;7.012;2023-06-19T12:28:15;8.95;;;5.68;;
54259;SDS011;40172;53.022;7.012;2023-06-19T12:30:44;7.18;;;6.00;;
54259;SDS011;40172;53.022;7.012;2023-06-19T12:33:11;8.05;;;5.97;;
54259;SDS011;40172;53.022;7.012;2023-06-19T12:35:40;10.10;;;5.50;;
54259;SDS011;40172;53.022;7.012;2023-06-19T12:38:06;9.25;;;6.63;;
54259;SDS011;40172;53.022;7.012;2023-06-19T12:40:33;8.82;;;6.18;;
54259;SDS011;40172;53.022;7.012;2023-06-19T12:42:58;8.43;;;6.28;;
54259;SDS011;40172;53.022;7.012;2023-06-19T12:45:24;9.73;;;5.82;;
54259;SDS011;40172;53.022;7.012;2023-06-19T12:47:50;7.40;;;5.93;;
54259;SDS011;40172;53.022;7.012;2023-06-19T12:50:15;11.23;;;6.60;;
54259;SDS011;40172;53.022;7.012;2023-06-19T12:52:41;8.40;;;5.45;;
54259;SDS011;40172;53.022;7.012;2023-06-19T12:55:07;8.23;;;5.80;;
54259;SDS011;40172;53.022;7.012;2023-06-19T12:57:32;8.18;;;5.80;;
54259;SDS011;40172;53.022;7.012;2023-06-19T12:59:58;7.53;;;6.07;;
54259;SDS011;40172;53.022;7.012;2023-06-19T13:02:24;10.50;;;5.80;;
54259;SDS011;40172;53.022;7.012;2023-06-19T13:04:49;16.42;;;6.22;;
54259;SDS011;40172;53.022;7.012;2023-06-19T13:07:15;10.02;;;5.78;;
54259;SDS011;40172;53.022;7.012;2023-06-19T13:09:41;9.98;;;5.75;;
54259;SDS011;40172;53.022;7.012;2023-06-19T13:12:07;9.70;;;5.72;;
54259;SDS011;40172;53.022;7.012;2023-06-19T13:14:33;10.43;;;5.38;;
54259;SDS011;40172;53.022;7.012;2023-06-19T13:16:59;8.10;;;5.60;;
54259;SDS011;40172;53.022;7.012;2023-06-19T13:19:25;7.47;;;5.18;;
54259;SDS011;40172;53.022;7.012;2023-06-19T13:21:50;10.20;;;5.97;;
54259;SDS011;40172;53.022;7.012;2023-06-19T13:24:16;9.63;;;6.28;;
54259;SDS011;40172;53.022;7.012;2023-06-19T13:26:43;7.60;;;6.35;;
54259;SDS011;40172;53.022;7.012;2023-06-19T13:29:09;8.15;;;5.30;;
54259;SDS011;40172;53.022;7.012;2023-06-19T13:31:35;11.82;;;6.25;;
54259;SDS011;40172;53.022;7.012;2023-06-19T13:34:01;7.70;;;5.35;;
54259;SDS011;40172;53.022;7.012;2023-06-19T13:36:27;8.65;;;6.10;;
54259;SDS011;40172;53.022;7.012;2023-06-19T13:38:53;10.88;;;5.50;;
54259;SDS011;40172;53.022;7.012;2023-06-19T13:41:18;7.47;;;5.28;;
54259;SDS011;40172;53.022;7.012;2023-06-19T13:43:44;8.00;;;5.15;;
54259;SDS011;40172;53.022;7.012;2023-06-19T13:46:11;7.63;;;4.68;;
54259;SDS011;40172;53.022;7.012;2023-06-19T13:48:36;8.02;;;5.07;;
54259;SDS011;40172;53.022;7.012;2023-06-19T13:51:02;6.28;;;4.82;;
54259;SDS011;40172;53.022;7.012;2023-06-19T13:53:28;7.93;;;5.47;;
54259;SDS011;40172;53.022;7.012;2023-06-19T13:55:54;9.95;;;5.40;;
54259;SDS011;40172;53.022;7.012;2023-06-19T13:58:20;9.93;;;5.13;;
54259;SDS011;40172;53.022;7.012;2023-06-19T14:00:45;7.13;;;5.10;;
54259;SDS011;40172;53.022;7.012;2023-06-19T14:03:12;11.48;;;5.50;;
54259;SDS011;40172;53.022;7.012;2023-06-19T14:05:38;8.88;;;5.28;;
54259;SDS011;40172;53.022;7.012;2023-06-19T14:08:04;10.10;;;6.57;;
54259;SDS011;40172;53.022;7.012;2023-06-19T14:10:30;8.48;;;6.15;;
54259;SDS011;40172;53.022;7.012;2023-06-19T14:12:56;7.28;;;5.75;;
54259;SDS011;40172;53.022;7.012;2023-06-19T14:15:21;9.13;;;6.20;;
54259;SDS011;40172;53.022;7.012;2023-06-19T14:17:47;9.38;;;5.82;;
54259;SDS011;40172;53.022;7.012;2023-06-19T14:20:13;11.00;;;6.10;;
54259;SDS011;40172;53.022;7.012;2023-06-19T14:22:38;11.55;;;6.03;;
54259;SDS011;40172;53.022;7.012;2023-06-19T14:25:04;9.90;;;6.20;;
54259;SDS011;40172;53.022;7.012;2023-06-19T14:27:30;9.15;;;5.70;;
54259;SDS011;40172;53.022;7.012;2023-06-19T14:29:56;8.32;;;5.78;;
54259;SDS011;40172;53.022;7.012;2023-06-19T14:32:22;8.93;;;6.38;;
54259;SDS011;40172;53.022;7.012;2023-06-19T14:34:50;11.25;;;6.03;;
54259;SDS011;40172;53.022;7.012;2023-06-19T14:37:16;9.98;;;5.50;;
54259;SDS011;40172;53.022;7.012;2023-06-19T14:39:42;7.10;;;5.43;;
54259;SDS011;40172;53.022;7.012;2023-06-19T14:42:08;11.07;;;5.07;;
54259;SDS011;40172;53.022;7.012;2023-06-19T14:44:35;9.77;;;4.90;;
54259;SDS011;40172;53.022;7.012;2023-06-19T14:47:01;11.50;;;5.40;;
54259;SDS011;40172;53.022;7.012;2023-06-19T14:49:27;10.93;;;6.18;;
54259;SDS011;40172;53.022;7.012;2023-06-19T14:51:52;9.55;;;5.55;;
54259;SDS011;40172;53.022;7.012;2023-06-19T14:54:19;6.40;;;4.97;;
54259;SDS011;40172;53.022;7.012;2023-06-19T14:56:44;9.57;;;5.35;;
54259;SDS011;40172;53.022;7.012;2023-06-19T14:59:14;8.93;;;5.20;;